createdAt,value
2022-12-23T00:01:14.469Z,5.37
2022-12-23T00:03:43.164Z,5.63
2022-12-23T00:06:11.346Z,5.63
2022-12-23T00:08:38.599Z,5.50
2022-12-23T00:11:10.149Z,5.30
2022-12-23T00:13:55.381Z,5.47
2022-12-23T00:16:22.343Z,5.43
2022-12-23T00:18:50.628Z,5.33
2022-12-23T00:21:17.901Z,5.47
2022-12-23T00:23:46.660Z,5.90
2022-12-23T00:26:15.394Z,5.40
2022-12-23T00:28:42.472Z,5.60
2022-12-23T00:31:12.379Z,5.93
2022-12-23T00:33:42.471Z,5.80
2022-12-23T00:36:17.287Z,5.03
2022-12-23T00:39:02.700Z,6.13
2022-12-23T00:41:48.728Z,5.40
2022-12-23T00:44:15.822Z,5.37
2022-12-23T00:46:42.753Z,4.97
2022-12-23T00:49:30.868Z,5.43
2022-12-23T00:51:59.953Z,4.73
2022-12-23T00:54:27.210Z,5.13
2022-12-23T00:56:54.338Z,5.50
2022-12-23T00:59:21.225Z,5.70
2022-12-23T01:02:06.720Z,5.03
2022-12-23T01:04:52.557Z,4.90
2022-12-23T01:07:21.686Z,5.37
2022-12-23T01:09:48.585Z,5.13
2022-12-23T01:12:15.770Z,5.33
2022-12-23T01:14:42.754Z,6.93
2022-12-23T01:17:09.749Z,6.17
2022-12-23T01:19:37.050Z,6.63
2022-12-23T01:22:03.915Z,6.70
2022-12-23T01:24:33.182Z,6.87
2022-12-23T01:27:00.518Z,5.97
2022-12-23T01:29:27.624Z,5.90
2022-12-23T01:31:54.660Z,4.73
2022-12-23T01:34:21.578Z,4.57
2022-12-23T01:36:48.386Z,4.10
2022-12-23T01:39:15.275Z,3.33
2022-12-23T01:42:02.246Z,3.50
2022-12-23T01:44:55.419Z,3.30
2022-12-23T01:47:39.719Z,3.63
2022-12-23T01:50:11.499Z,3.53
2022-12-23T01:52:43.323Z,3.63
2022-12-23T01:55:10.974Z,3.50
2022-12-23T01:57:42.001Z,4.23
2022-12-23T02:00:39.144Z,3.97
2022-12-23T02:03:24.336Z,4.67
2022-12-23T02:05:53.131Z,4.43
2022-12-23T02:08:38.270Z,4.47
2022-12-23T02:11:34.400Z,4.63
2022-12-23T02:14:34.472Z,5.30
2022-12-23T02:17:09.267Z,5.07
2022-12-23T02:20:00.879Z,5.97
2022-12-23T02:22:45.014Z,6.33
2022-12-23T02:25:35.008Z,6.67
2022-12-23T02:28:15.970Z,6.17
2022-12-23T02:30:48.484Z,6.73
2022-12-23T02:33:32.280Z,7.37
2022-12-23T02:36:09.888Z,6.63
2022-12-23T02:38:44.765Z,5.87
2022-12-23T02:41:20.090Z,6.10
2022-12-23T02:43:50.374Z,6.43
2022-12-23T02:46:24.033Z,6.60
2022-12-23T02:48:56.664Z,6.47
2022-12-23T02:51:28.897Z,5.90
2022-12-23T02:53:59.479Z,6.00
2022-12-23T02:56:28.404Z,5.63
2022-12-23T02:58:59.775Z,4.93
2022-12-23T03:01:35.715Z,5.33
2022-12-23T03:04:03.008Z,4.83
2022-12-23T03:06:32.956Z,5.57
2022-12-23T03:09:00.964Z,4.50
2022-12-23T03:11:40.182Z,4.63
2022-12-23T03:14:46.308Z,4.70
2022-12-23T03:17:31.034Z,4.77
2022-12-23T03:20:03.337Z,3.60
2022-12-23T03:22:35.455Z,3.77
2022-12-23T03:25:11.341Z,3.93
2022-12-23T03:27:44.383Z,4.17
2022-12-23T03:30:14.857Z,3.73
2022-12-23T03:32:47.239Z,3.40
2022-12-23T03:35:16.318Z,3.67
2022-12-23T03:37:48.256Z,3.93
2022-12-23T03:40:22.658Z,4.30
2022-12-23T03:42:56.741Z,4.23
2022-12-23T03:45:38.607Z,3.93
2022-12-23T03:48:13.925Z,4.07
2022-12-23T03:50:42.984Z,4.03
2022-12-23T03:53:14.513Z,4.60
2022-12-23T03:55:45.965Z,5.13
2022-12-23T03:58:19.680Z,5.67
2022-12-23T04:00:54.649Z,6.93
2022-12-23T04:03:31.454Z,7.43
2022-12-23T04:06:02.155Z,8.30
2022-12-23T04:08:33.271Z,8.13
2022-12-23T04:11:01.093Z,7.87
2022-12-23T04:13:28.622Z,8.13
2022-12-23T04:15:57.616Z,8.03
2022-12-23T04:18:25.822Z,8.73
2022-12-23T04:20:52.685Z,9.40
2022-12-23T04:23:19.583Z,9.60
2022-12-23T04:25:46.537Z,8.63
2022-12-23T04:28:13.342Z,14.10
2022-12-23T04:30:40.280Z,16.13
2022-12-23T04:33:10.630Z,14.23
2022-12-23T04:35:38.794Z,10.73
2022-12-23T04:38:05.808Z,9.40
2022-12-23T04:40:32.658Z,19.43
2022-12-23T04:42:59.532Z,10.90
2022-12-23T04:45:26.378Z,8.67
2022-12-23T04:47:54.541Z,9.13
2022-12-23T04:50:21.448Z,8.37
2022-12-23T04:52:49.632Z,8.03
2022-12-23T04:55:16.514Z,6.93
2022-12-23T04:57:43.424Z,7.67
2022-12-23T05:00:11.325Z,8.83
2022-12-23T05:02:38.299Z,8.07
2022-12-23T05:05:06.012Z,9.03
2022-12-23T05:07:32.861Z,9.97
2022-12-23T05:10:01.990Z,11.03
2022-12-23T05:12:29.983Z,11.47
2022-12-23T05:14:56.899Z,9.93
2022-12-23T05:17:23.755Z,11.73
2022-12-23T05:19:50.590Z,11.77
2022-12-23T05:22:17.420Z,10.77
2022-12-23T05:24:44.367Z,11.30
2022-12-23T05:27:12.682Z,9.87
2022-12-23T05:29:39.514Z,10.03
2022-12-23T05:32:06.917Z,8.53
2022-12-23T05:34:33.926Z,9.33
2022-12-23T05:37:00.765Z,9.63
2022-12-23T05:39:27.547Z,8.87
2022-12-23T05:41:54.392Z,9.27
2022-12-23T05:44:22.714Z,9.43
2022-12-23T05:46:49.610Z,8.83
2022-12-23T05:49:16.604Z,9.33
2022-12-23T05:51:43.437Z,7.83
2022-12-23T05:54:10.561Z,9.07
2022-12-23T05:56:37.497Z,7.97
2022-12-23T05:59:04.319Z,7.80
2022-12-23T06:01:32.546Z,6.60
2022-12-23T06:03:59.582Z,6.20
2022-12-23T06:06:26.535Z,7.07
2022-12-23T06:08:59.368Z,7.07
2022-12-23T06:11:26.731Z,6.60
2022-12-23T06:13:53.600Z,6.60
2022-12-23T06:16:20.452Z,6.30
2022-12-23T06:18:48.722Z,5.70
2022-12-23T06:21:15.562Z,5.30
2022-12-23T06:23:42.414Z,5.83
2022-12-23T06:26:09.319Z,5.80
2022-12-23T06:28:36.242Z,5.40
2022-12-23T06:31:03.150Z,5.50
2022-12-23T06:33:30.027Z,4.37
2022-12-23T06:35:58.339Z,4.30
2022-12-23T06:38:25.255Z,4.70
2022-12-23T06:40:52.110Z,4.07
2022-12-23T06:43:19.038Z,3.40
2022-12-23T06:45:47.800Z,3.73
2022-12-23T06:48:15.252Z,3.27
2022-12-23T06:50:42.545Z,3.83
2022-12-23T06:53:10.823Z,3.50
2022-12-23T06:55:37.766Z,3.37
2022-12-23T06:58:10.883Z,3.10
2022-12-23T07:00:37.785Z,3.50
2022-12-23T07:03:04.715Z,3.70
2022-12-23T07:05:36.987Z,4.50
2022-12-23T07:08:04.590Z,4.27
2022-12-23T07:10:33.822Z,4.00
2022-12-23T07:13:01.603Z,5.17
2022-12-23T07:15:28.397Z,4.53
2022-12-23T07:17:55.329Z,4.57
2022-12-23T07:20:22.276Z,3.67
2022-12-23T07:22:50.284Z,4.00
2022-12-23T07:25:17.143Z,3.70
2022-12-23T07:27:45.392Z,4.07
2022-12-23T07:30:14.041Z,4.00
2022-12-23T07:32:40.870Z,4.30
2022-12-23T07:35:08.290Z,4.43
2022-12-23T07:37:35.162Z,4.10
2022-12-23T07:40:08.163Z,4.80
2022-12-23T07:42:50.951Z,4.90
2022-12-23T07:45:19.177Z,4.43
2022-12-23T07:47:46.127Z,4.93
2022-12-23T07:50:13.549Z,4.43
2022-12-23T07:52:40.508Z,4.10
2022-12-23T07:55:08.055Z,4.50
2022-12-23T07:57:38.207Z,5.27
2022-12-23T08:00:07.274Z,4.77
2022-12-23T08:02:35.838Z,4.50
2022-12-23T08:05:02.974Z,5.07
2022-12-23T08:07:29.925Z,4.33
2022-12-23T08:09:56.907Z,5.13
2022-12-23T08:16:06.423Z,4.30
2022-12-23T08:18:36.451Z,4.80
2022-12-23T08:21:07.589Z,3.97
2022-12-23T08:23:34.831Z,3.70
2022-12-23T08:26:03.481Z,3.77
2022-12-23T08:28:31.454Z,3.27
2022-12-23T08:31:04.500Z,3.60
2022-12-23T08:33:31.441Z,2.93
2022-12-23T08:36:00.051Z,4.03
2022-12-23T08:38:27.034Z,3.80
2022-12-23T08:40:54.111Z,4.23
2022-12-23T08:43:21.073Z,4.23
2022-12-23T08:45:48.053Z,3.97
2022-12-23T08:48:15.100Z,3.90
2022-12-23T08:50:44.868Z,4.10
2022-12-23T08:53:13.891Z,3.53
2022-12-23T08:55:41.586Z,3.23
2022-12-23T08:58:09.546Z,3.53
2022-12-23T09:00:37.027Z,3.70
2022-12-23T09:03:04.550Z,3.53
2022-12-23T09:05:31.625Z,3.83
2022-12-23T09:07:58.900Z,3.67
2022-12-23T09:10:27.152Z,3.80
2022-12-23T09:12:57.713Z,4.87
2022-12-23T09:15:24.947Z,4.03
2022-12-23T09:17:52.643Z,4.20
2022-12-23T09:20:19.548Z,4.50
2022-12-23T09:22:46.431Z,5.57
2022-12-23T09:25:14.209Z,5.20
2022-12-23T09:27:42.532Z,5.17
2022-12-23T09:30:10.739Z,4.50
2022-12-23T09:32:37.693Z,3.70
2022-12-23T09:35:05.184Z,3.60
2022-12-23T09:37:32.062Z,3.60
2022-12-23T09:39:58.852Z,3.90
2022-12-23T09:42:39.495Z,4.00
2022-12-23T09:45:19.005Z,3.83
2022-12-23T09:47:46.101Z,3.50
2022-12-23T09:50:21.497Z,3.63
2022-12-23T09:53:00.924Z,3.57
2022-12-23T09:55:36.088Z,5.60
2022-12-23T09:58:15.492Z,6.17
2022-12-23T10:00:57.336Z,5.23
2022-12-23T10:03:28.965Z,4.47
2022-12-23T10:06:02.920Z,4.33
2022-12-23T10:08:34.319Z,5.30
2022-12-23T10:11:06.497Z,4.50
2022-12-23T10:13:36.511Z,4.37
2022-12-23T10:16:09.757Z,4.37
2022-12-23T10:18:44.853Z,4.33
2022-12-23T10:21:16.541Z,4.53
2022-12-23T10:23:49.250Z,3.77
2022-12-23T10:26:23.344Z,3.27
2022-12-23T10:28:54.211Z,3.47
2022-12-23T10:31:41.550Z,3.33
2022-12-23T10:34:17.574Z,3.27
2022-12-23T10:36:53.529Z,3.33
2022-12-23T10:39:31.209Z,3.10
2022-12-23T10:42:08.025Z,3.70
2022-12-23T10:45:04.605Z,3.60
2022-12-23T10:47:51.072Z,3.60
2022-12-23T10:50:37.560Z,2.83
2022-12-23T10:53:10.719Z,3.57
2022-12-23T10:55:38.594Z,3.20
2022-12-23T10:58:08.744Z,3.07
2022-12-23T11:00:40.139Z,3.40
2022-12-23T11:03:17.598Z,3.50
2022-12-23T11:05:46.971Z,3.53
2022-12-23T11:08:15.389Z,3.40
2022-12-23T11:10:42.411Z,3.80
2022-12-23T11:13:09.323Z,3.67
2022-12-23T11:15:38.466Z,3.60
2022-12-23T11:18:07.687Z,3.40
2022-12-23T11:21:21.794Z,4.10
2022-12-23T11:24:08.513Z,3.50
2022-12-23T11:26:36.126Z,3.50
2022-12-23T11:29:10.078Z,3.67
2022-12-23T11:31:37.718Z,4.10
2022-12-23T11:34:12.337Z,3.70
2022-12-23T11:36:39.565Z,3.70
2022-12-23T11:39:23.005Z,3.60
2022-12-23T11:41:53.964Z,3.73
2022-12-23T11:44:24.306Z,4.20
2022-12-23T11:46:51.777Z,3.77
2022-12-23T11:49:22.006Z,4.33
2022-12-23T11:52:01.820Z,4.63
2022-12-23T11:54:30.828Z,4.50
2022-12-23T11:56:58.891Z,4.77
2022-12-23T11:59:35.593Z,4.10
2022-12-23T12:02:09.780Z,4.37
2022-12-23T12:04:37.527Z,4.70
2022-12-23T12:07:06.658Z,4.60
2022-12-23T12:09:39.323Z,4.50
2022-12-23T12:12:13.571Z,5.13
2022-12-23T12:14:43.056Z,4.73
2022-12-23T12:17:19.040Z,4.80
2022-12-23T12:19:56.387Z,4.80
2022-12-23T12:22:32.042Z,4.90
2022-12-23T12:25:11.114Z,6.10
2022-12-23T12:27:41.338Z,5.27
2022-12-23T12:30:15.894Z,5.33
2022-12-23T12:32:51.646Z,4.93
2022-12-23T12:35:26.207Z,5.13
2022-12-23T12:38:01.052Z,7.53
2022-12-23T12:40:36.734Z,5.20
2022-12-23T12:43:15.967Z,4.80
2022-12-23T12:49:32.991Z,5.13
2022-12-23T12:52:07.821Z,5.80
2022-12-23T12:54:41.253Z,5.97
2022-12-23T12:57:15.712Z,5.80
2022-12-23T12:59:53.124Z,5.53
2022-12-23T13:02:43.684Z,5.50
2022-12-23T13:05:31.532Z,5.40
2022-12-23T13:08:19.078Z,5.33
2022-12-23T13:10:50.727Z,6.07
2022-12-23T13:13:28.235Z,5.60
2022-12-23T13:16:00.472Z,6.30
2022-12-23T13:18:41.349Z,6.20
2022-12-23T13:21:14.491Z,5.77
2022-12-23T13:23:51.045Z,5.70
2022-12-23T13:26:25.615Z,5.10
2022-12-23T13:29:09.518Z,5.60
2022-12-23T13:32:27.217Z,5.03
2022-12-23T13:35:07.749Z,4.67
2022-12-23T13:37:44.051Z,4.33
2022-12-23T13:40:27.921Z,4.70
2022-12-23T13:42:59.868Z,4.17
2022-12-23T13:45:34.286Z,5.23
2022-12-23T13:48:21.880Z,4.63
2022-12-23T13:50:54.650Z,5.00
2022-12-23T13:53:30.445Z,5.13
2022-12-23T13:56:12.671Z,5.20
2022-12-23T13:58:41.033Z,4.90
2022-12-23T14:01:35.566Z,5.00
2022-12-23T14:04:36.020Z,4.33
2022-12-23T14:07:19.477Z,3.97
2022-12-23T14:09:52.346Z,4.33
2022-12-23T14:12:25.996Z,4.00
2022-12-23T14:15:18.914Z,3.40
2022-12-23T14:18:02.458Z,3.47
2022-12-23T14:20:43.327Z,3.43
2022-12-23T14:23:25.527Z,3.03
2022-12-23T14:26:01.979Z,3.33
2022-12-23T14:28:46.268Z,3.20
2022-12-23T14:31:33.970Z,2.83
2022-12-23T14:34:25.047Z,2.53
2022-12-23T14:37:31.399Z,2.50
2022-12-23T14:39:59.434Z,3.00
2022-12-23T14:42:40.951Z,2.63
2022-12-23T14:45:35.444Z,2.30
2022-12-23T14:48:03.661Z,2.30
2022-12-23T14:50:42.747Z,2.63
2022-12-23T14:53:24.499Z,2.80
2022-12-23T14:56:07.426Z,3.13
2022-12-23T14:58:53.888Z,2.80
2022-12-23T15:01:28.865Z,2.73
2022-12-23T15:04:01.647Z,2.80
2022-12-23T15:06:36.207Z,2.67
2022-12-23T15:09:05.941Z,4.00
2022-12-23T15:11:36.181Z,3.53
2022-12-23T15:14:07.034Z,4.00
2022-12-23T15:16:36.529Z,3.47
2022-12-23T15:19:20.844Z,3.80
2022-12-23T15:21:59.242Z,3.20
2022-12-23T15:24:30.177Z,2.90
2022-12-23T15:27:25.112Z,3.20
2022-12-23T15:29:47.898Z,3.37
2022-12-23T15:32:15.276Z,3.20
2022-12-23T15:34:42.473Z,2.67
2022-12-23T15:37:12.744Z,3.63
2022-12-23T15:39:43.676Z,3.20
2022-12-23T15:42:21.682Z,2.40
2022-12-23T15:44:48.637Z,2.50
2022-12-23T15:47:24.003Z,2.50
2022-12-23T15:49:51.023Z,3.10
2022-12-23T15:52:20.584Z,2.27
2022-12-23T15:54:55.350Z,2.20
2022-12-23T15:57:26.261Z,2.80
2022-12-23T15:59:53.997Z,2.47
2022-12-23T16:05:25.232Z,2.83
2022-12-23T16:08:09.824Z,3.33
2022-12-23T16:10:37.558Z,3.47
2022-12-23T16:13:04.503Z,3.43
2022-12-23T16:15:32.987Z,3.57
2022-12-23T16:18:13.251Z,4.20
2022-12-23T16:20:42.796Z,4.63
2022-12-23T16:23:12.928Z,5.17
2022-12-23T16:25:44.095Z,5.20
2022-12-23T16:28:18.100Z,6.10
2022-12-23T16:30:49.467Z,6.00
2022-12-23T16:33:31.442Z,6.90
2022-12-23T16:36:22.405Z,8.20
2022-12-23T16:38:52.096Z,7.57
2022-12-23T16:41:19.587Z,8.43
2022-12-23T16:43:51.854Z,7.60
2022-12-23T16:46:21.200Z,8.40
2022-12-23T16:48:50.308Z,8.33
2022-12-23T16:51:20.101Z,6.77
2022-12-23T16:53:47.203Z,7.07
2022-12-23T16:56:17.513Z,7.47
2022-12-23T16:58:45.043Z,7.17
2022-12-23T17:01:14.407Z,6.93
2022-12-23T17:03:41.309Z,7.63
2022-12-23T17:06:12.658Z,7.13
2022-12-23T17:08:39.516Z,7.50
2022-12-23T17:11:12.564Z,8.30
2022-12-23T17:13:40.894Z,7.27
2022-12-23T17:16:14.856Z,7.17
2022-12-23T17:18:41.964Z,7.70
2022-12-23T17:21:16.838Z,7.73
2022-12-23T17:23:43.855Z,7.50
2022-12-23T17:26:10.715Z,7.63
2022-12-23T17:28:37.659Z,7.17
2022-12-23T17:31:13.791Z,8.00
2022-12-23T17:33:41.752Z,8.13
2022-12-23T17:36:10.049Z,7.47
2022-12-23T17:38:36.881Z,7.23
2022-12-23T17:41:04.484Z,7.27
2022-12-23T17:43:31.366Z,7.40
2022-12-23T17:45:58.237Z,6.27
2022-12-23T17:48:31.403Z,6.73
2022-12-23T17:50:58.685Z,5.53
2022-12-23T17:53:25.489Z,5.67
2022-12-23T17:55:52.403Z,6.10
2022-12-23T17:58:19.887Z,5.97
2022-12-23T18:00:46.847Z,6.20
2022-12-23T18:03:22.171Z,6.97
2022-12-23T18:05:57.271Z,6.63
2022-12-23T18:08:27.986Z,6.37
2022-12-23T18:10:54.917Z,6.53
2022-12-23T18:13:21.941Z,6.40
2022-12-23T18:15:49.999Z,6.00
2022-12-23T18:18:26.084Z,5.50
2022-12-23T18:20:58.471Z,5.40
2022-12-23T18:23:29.890Z,5.13
2022-12-23T18:25:57.501Z,5.10
2022-12-23T18:28:25.022Z,4.70
2022-12-23T18:30:54.613Z,4.77
2022-12-23T18:33:21.742Z,4.93
2022-12-23T18:35:49.822Z,4.23
2022-12-23T18:38:18.318Z,4.27
2022-12-23T18:40:45.219Z,4.87
2022-12-23T18:43:18.990Z,4.20
2022-12-23T18:45:52.256Z,4.07
2022-12-23T18:48:20.127Z,3.70
2022-12-23T18:50:47.032Z,3.90
2022-12-23T18:53:23.740Z,4.00
2022-12-23T18:55:52.306Z,4.00
2022-12-23T18:58:19.501Z,3.67
2022-12-23T19:00:47.737Z,3.00
2022-12-23T19:03:22.289Z,3.43
2022-12-23T19:05:50.628Z,3.30
2022-12-23T19:08:25.897Z,3.20
2022-12-23T19:10:55.455Z,2.70
2022-12-23T19:13:22.509Z,2.03
2022-12-23T19:15:49.723Z,1.40
2022-12-23T19:18:18.223Z,1.63
2022-12-23T19:20:46.259Z,1.30
2022-12-23T19:23:13.943Z,1.30
2022-12-23T19:25:43.519Z,0.93
2022-12-23T19:28:13.201Z,1.80
2022-12-23T19:30:41.450Z,1.13
2022-12-23T19:33:08.366Z,1.43
2022-12-23T19:35:35.309Z,1.03
2022-12-23T19:38:02.293Z,1.20
2022-12-23T19:40:29.930Z,1.10
2022-12-23T19:42:58.200Z,1.03
2022-12-23T19:45:25.094Z,1.50
2022-12-23T19:47:52.925Z,1.27
2022-12-23T19:50:22.068Z,1.20
2022-12-23T19:52:50.133Z,1.13
2022-12-23T19:55:17.106Z,1.93
2022-12-23T19:57:44.139Z,1.63
2022-12-23T20:00:15.887Z,1.93
2022-12-23T20:02:42.951Z,2.37
2022-12-23T20:05:10.225Z,1.40
2022-12-23T20:07:37.891Z,1.63
2022-12-23T20:10:05.766Z,2.10
2022-12-23T20:12:32.738Z,1.50
2022-12-23T20:14:59.674Z,1.43
2022-12-23T20:17:27.989Z,1.50
2022-12-23T20:19:54.881Z,1.67
2022-12-23T20:22:21.978Z,1.83
2022-12-23T20:24:49.719Z,1.67
2022-12-23T20:27:20.133Z,1.67
2022-12-23T20:29:49.686Z,2.10
2022-12-23T20:32:16.578Z,2.20
2022-12-23T20:34:44.867Z,1.70
2022-12-23T20:37:11.868Z,1.93
2022-12-23T20:39:38.735Z,1.57
2022-12-23T20:42:05.632Z,2.47
2022-12-23T20:44:35.050Z,1.73
2022-12-23T20:47:03.577Z,2.07
2022-12-23T20:49:30.625Z,1.80
2022-12-23T20:51:59.019Z,1.90
2022-12-23T20:54:32.239Z,1.50
2022-12-23T20:57:00.239Z,1.23
2022-12-23T20:59:27.182Z,1.87
2022-12-23T21:01:54.816Z,4.07
2022-12-23T21:04:22.399Z,1.63
2022-12-23T21:06:49.300Z,1.63
2022-12-23T21:09:17.915Z,2.13
2022-12-23T21:11:47.011Z,1.30
2022-12-23T21:14:14.755Z,1.60
2022-12-23T21:16:42.654Z,1.33
2022-12-23T21:19:14.781Z,1.17
2022-12-23T21:21:41.719Z,1.27
2022-12-23T21:24:10.175Z,1.70
2022-12-23T21:26:38.575Z,1.13
2022-12-23T21:29:07.658Z,1.40
2022-12-23T21:31:36.706Z,1.50
2022-12-23T21:34:04.156Z,1.93
2022-12-23T21:36:32.948Z,2.03
2022-12-23T21:39:00.311Z,1.47
2022-12-23T21:41:29.509Z,1.13
2022-12-23T21:43:58.957Z,1.33
2022-12-23T21:46:27.329Z,1.33
2022-12-23T21:48:56.148Z,1.30
2022-12-23T21:51:25.060Z,1.40
2022-12-23T21:53:53.627Z,1.90
2022-12-23T21:56:22.140Z,1.40
2022-12-23T21:58:48.992Z,1.40
2022-12-23T22:01:19.008Z,1.40
2022-12-23T22:03:48.356Z,1.57
2022-12-23T22:06:17.228Z,1.70
2022-12-23T22:08:44.381Z,1.47
2022-12-23T22:11:13.398Z,1.00
2022-12-23T22:13:40.934Z,1.80
2022-12-23T22:16:09.736Z,1.67
2022-12-23T22:18:38.462Z,1.60
2022-12-23T22:21:05.966Z,1.77
2022-12-23T22:23:33.039Z,1.27
2022-12-23T22:26:00.002Z,1.43
2022-12-23T22:28:26.844Z,1.60
2022-12-23T22:30:53.651Z,1.40
2022-12-23T22:33:21.133Z,1.37
2022-12-23T22:35:55.668Z,2.40
2022-12-23T22:38:22.550Z,1.47
2022-12-23T22:40:49.775Z,1.60
2022-12-23T22:43:16.731Z,1.70
2022-12-23T22:45:43.751Z,1.60
2022-12-23T22:48:11.033Z,1.67
2022-12-23T22:50:38.359Z,1.40
2022-12-23T22:53:06.740Z,1.70
2022-12-23T22:55:33.664Z,1.67
2022-12-23T22:58:00.600Z,2.23
2022-12-23T23:00:27.651Z,1.67
2022-12-23T23:02:54.432Z,1.83
2022-12-23T23:05:21.408Z,2.03
2022-12-23T23:07:48.329Z,1.33
2022-12-23T23:10:16.553Z,1.43
2022-12-23T23:12:44.312Z,1.90
2022-12-23T23:15:11.543Z,2.20
2022-12-23T23:17:38.443Z,1.80
2022-12-23T23:20:06.417Z,1.07
2022-12-23T23:22:33.339Z,1.90
2022-12-23T23:25:00.567Z,1.70
2022-12-23T23:27:28.989Z,1.50
2022-12-23T23:29:56.146Z,2.03
2022-12-23T23:32:23.015Z,1.83
2022-12-23T23:34:50.003Z,2.20
2022-12-23T23:37:16.818Z,2.07
2022-12-23T23:39:43.718Z,1.90
2022-12-23T23:42:10.533Z,1.67
2022-12-23T23:44:38.725Z,1.40
2022-12-23T23:47:05.584Z,1.67
2022-12-23T23:49:32.600Z,1.43
2022-12-23T23:51:59.368Z,1.67
2022-12-23T23:54:26.312Z,1.63
2022-12-23T23:56:53.135Z,1.77
2022-12-23T23:59:19.928Z,2.00
